createdAt,value
2019-04-12T00:02:13.726Z,63.56
2019-04-12T00:04:42.220Z,66.78
2019-04-12T00:07:10.686Z,66.39
2019-04-12T00:09:39.171Z,64.78
2019-04-12T00:12:07.911Z,64.67
2019-04-12T00:14:36.413Z,67.44
2019-04-12T00:17:04.884Z,65.80
2019-04-12T00:19:33.403Z,64.87
2019-04-12T00:22:01.850Z,67.11
2019-04-12T00:24:35.000Z,64.58
2019-04-12T00:27:00.553Z,65.11
2019-04-12T00:29:29.053Z,65.54
2019-04-12T00:31:57.516Z,67.73
2019-04-12T00:34:26.036Z,65.92
2019-04-12T00:36:54.628Z,65.96
2019-04-12T00:39:23.066Z,68.16
2019-04-12T00:41:51.639Z,64.98
2019-04-12T00:44:20.258Z,67.27
2019-04-12T00:46:49.340Z,66.71
2019-04-12T00:49:17.804Z,65.87
2019-04-12T00:51:46.387Z,67.81
2019-04-12T00:54:14.962Z,67.72
2019-04-12T00:56:46.141Z,66.95
2019-04-12T00:59:17.060Z,66.17
2019-04-12T01:01:48.535Z,68.93
2019-04-12T01:04:21.351Z,65.61
2019-04-12T01:06:50.003Z,68.35
2019-04-12T01:09:22.128Z,66.99
2019-04-12T01:11:49.013Z,66.24
2019-04-12T01:14:17.527Z,68.31
2019-04-12T01:16:46.112Z,65.91
2019-04-12T01:19:14.579Z,66.71
2019-04-12T01:21:43.587Z,67.09
2019-04-12T01:24:12.066Z,68.64
2019-04-12T01:26:40.559Z,67.52
2019-04-12T01:29:09.008Z,68.45
2019-04-12T01:31:37.622Z,68.12
2019-04-12T01:34:06.149Z,68.98
2019-04-12T01:36:34.729Z,68.17
2019-04-12T01:39:04.263Z,67.24
2019-04-12T01:41:32.732Z,69.15
2019-04-12T01:44:01.223Z,69.82
2019-04-12T01:46:29.696Z,70.32
2019-04-12T01:48:58.218Z,67.80
2019-04-12T01:51:26.701Z,69.59
2019-04-12T01:53:55.196Z,68.28
2019-04-12T01:56:23.665Z,68.43
2019-04-12T01:58:52.216Z,67.58
2019-04-12T02:01:20.949Z,67.66
2019-04-12T02:03:49.448Z,69.74
2019-04-12T02:06:17.979Z,69.96
2019-04-12T02:08:46.456Z,68.35
2019-04-12T02:11:14.942Z,68.96
2019-04-12T02:13:43.441Z,68.14
2019-04-12T02:16:11.922Z,70.54
2019-04-12T02:18:40.411Z,67.80
2019-04-12T02:21:09.505Z,70.89
2019-04-12T02:23:38.320Z,69.69
2019-04-12T02:26:06.803Z,69.77
2019-04-12T02:28:53.402Z,70.31
2019-04-12T02:31:28.760Z,68.51
2019-04-12T02:33:57.596Z,70.54
2019-04-12T02:36:27.733Z,68.90
2019-04-12T02:38:56.359Z,69.07
2019-04-12T02:41:25.754Z,67.62
2019-04-12T02:43:57.478Z,69.21
2019-04-12T02:46:29.739Z,70.40
2019-04-12T02:49:11.746Z,67.50
2019-04-12T02:51:49.975Z,70.68
2019-04-12T02:54:29.805Z,67.96
2019-04-12T02:57:00.685Z,69.71
2019-04-12T02:59:31.351Z,70.25
2019-04-12T03:02:01.528Z,69.46
2019-04-12T03:04:30.453Z,69.75
2019-04-12T03:06:59.616Z,70.62
2019-04-12T03:09:30.427Z,71.24
2019-04-12T03:12:01.468Z,70.83
2019-04-12T03:14:32.214Z,69.60
2019-04-12T03:17:02.454Z,68.42
2019-04-12T03:19:31.973Z,70.68
2019-04-12T03:22:01.106Z,69.23
2019-04-12T03:24:29.759Z,69.54
2019-04-12T03:26:58.419Z,70.40
2019-04-12T03:29:26.921Z,71.71
2019-04-12T03:31:55.931Z,69.60
2019-04-12T03:34:24.618Z,69.87
2019-04-12T03:36:53.374Z,69.80
2019-04-12T03:39:22.411Z,70.76
2019-04-12T03:41:51.549Z,71.72
2019-04-12T03:44:20.699Z,69.26
2019-04-12T03:46:49.469Z,70.10
2019-04-12T03:49:18.203Z,69.89
2019-04-12T03:51:47.366Z,71.02
2019-04-12T03:54:16.004Z,70.63
2019-04-12T03:56:44.949Z,70.90
2019-04-12T03:59:19.526Z,69.46
2019-04-12T04:01:51.660Z,71.74
2019-04-12T04:04:21.050Z,69.44
2019-04-12T04:06:49.710Z,69.63
2019-04-12T04:09:20.186Z,69.41
2019-04-12T04:11:49.158Z,68.73
2019-04-12T04:14:17.933Z,69.73
2019-04-12T04:16:51.733Z,69.98
2019-04-12T04:19:20.737Z,70.74
2019-04-12T04:21:59.274Z,69.87
2019-04-12T04:24:32.737Z,71.64
2019-04-12T04:27:20.630Z,71.07
2019-04-12T04:29:57.993Z,71.16
2019-04-12T04:32:31.151Z,71.41
2019-04-12T04:34:59.704Z,70.01
2019-04-12T04:37:28.663Z,68.87
2019-04-12T04:39:57.767Z,69.62
2019-04-12T04:42:26.687Z,69.18
2019-04-12T04:44:55.693Z,70.03
2019-04-12T04:47:24.585Z,68.93
2019-04-12T04:49:53.211Z,72.02
2019-04-12T04:52:21.870Z,69.64
2019-04-12T04:54:50.682Z,70.92
2019-04-12T04:57:19.552Z,68.97
2019-04-12T04:59:48.665Z,69.01
2019-04-12T05:02:17.404Z,69.59
2019-04-12T05:04:46.038Z,69.36
2019-04-12T05:07:14.600Z,67.97
2019-04-12T05:09:44.666Z,68.35
2019-04-12T05:12:13.439Z,67.61
2019-04-12T05:14:42.189Z,67.17
2019-04-12T05:17:11.233Z,67.09
2019-04-12T05:19:40.126Z,67.39
2019-04-12T05:22:09.205Z,66.64
2019-04-12T05:24:38.525Z,67.13
2019-04-12T05:27:07.361Z,66.33
2019-04-12T05:29:35.946Z,65.84
2019-04-12T05:32:05.489Z,66.15
2019-04-12T05:34:34.376Z,65.39
2019-04-12T05:37:10.150Z,65.43
2019-04-12T05:39:33.693Z,65.34
2019-04-12T05:42:02.165Z,64.73
2019-04-12T05:44:30.673Z,64.73
2019-04-12T05:47:00.784Z,64.54
2019-04-12T05:49:30.945Z,64.06
2019-04-12T05:51:59.762Z,63.95
2019-04-12T05:54:28.265Z,63.96
2019-04-12T05:56:57.453Z,64.49
2019-04-12T05:59:36.732Z,64.51
2019-04-12T06:02:20.465Z,63.99
2019-04-12T06:04:49.132Z,64.13
2019-04-12T06:07:17.617Z,63.70
2019-04-12T06:09:46.112Z,64.31
2019-04-12T06:12:15.312Z,64.03
2019-04-12T06:14:44.515Z,63.47
2019-04-12T06:17:13.507Z,63.57
2019-04-12T06:19:42.840Z,63.27
2019-04-12T06:22:12.922Z,62.77
2019-04-12T06:24:43.055Z,62.82
2019-04-12T06:27:13.157Z,62.70
2019-04-12T06:29:41.644Z,62.38
2019-04-12T06:32:10.646Z,62.23
2019-04-12T06:34:39.232Z,62.39
2019-04-12T06:37:07.869Z,61.81
2019-04-12T06:39:36.379Z,61.71
2019-04-12T06:42:04.919Z,61.53
2019-04-12T06:44:33.442Z,61.41
2019-04-12T06:47:01.998Z,61.06
2019-04-12T06:49:30.508Z,60.52
2019-04-12T06:51:59.097Z,60.68
2019-04-12T06:54:27.567Z,60.34
2019-04-12T06:56:57.863Z,59.81
2019-04-12T06:59:26.376Z,60.01
2019-04-12T07:02:11.651Z,59.61
2019-04-12T07:04:41.786Z,59.70
2019-04-12T07:07:10.258Z,59.45
2019-04-12T07:09:38.748Z,59.19
2019-04-12T07:12:07.389Z,59.47
2019-04-12T07:14:35.882Z,59.43
2019-04-12T07:17:04.360Z,60.03
2019-04-12T07:19:32.870Z,59.59
2019-04-12T07:22:01.345Z,59.89
2019-04-12T07:24:29.824Z,59.69
2019-04-12T07:26:58.308Z,59.62
2019-04-12T07:29:26.768Z,59.53
2019-04-12T07:31:55.247Z,59.13
2019-04-12T07:34:23.735Z,59.53
2019-04-12T07:36:52.230Z,59.15
2019-04-12T07:39:20.721Z,59.55
2019-04-12T07:41:49.222Z,59.20
2019-04-12T07:44:17.728Z,58.85
2019-04-12T07:46:46.213Z,58.87
2019-04-12T07:49:14.698Z,58.39
2019-04-12T07:51:47.513Z,58.43
2019-04-12T07:54:17.629Z,58.42
2019-04-12T07:56:46.399Z,58.20
2019-04-12T07:59:19.674Z,58.26
2019-04-12T08:01:52.537Z,57.92
2019-04-12T08:04:22.650Z,60.15
2019-04-12T08:06:52.804Z,59.23
2019-04-12T08:09:21.261Z,57.54
2019-04-12T08:11:49.840Z,57.21
2019-04-12T08:14:19.537Z,58.22
2019-04-12T08:16:49.279Z,57.75
2019-04-12T08:19:17.778Z,56.94
2019-04-12T08:21:46.324Z,56.65
2019-04-12T08:24:14.806Z,56.54
2019-04-12T08:26:43.697Z,56.66
2019-04-12T08:29:12.194Z,56.29
2019-04-12T08:31:40.692Z,54.86
2019-04-12T08:34:09.192Z,55.01
2019-04-12T08:36:37.688Z,53.46
2019-04-12T08:39:08.573Z,53.39
2019-04-12T08:41:37.075Z,55.17
2019-04-12T08:44:05.618Z,54.64
2019-04-12T08:46:34.112Z,54.12
2019-04-12T08:49:02.643Z,54.13
2019-04-12T08:51:31.165Z,54.66
2019-04-12T08:53:59.668Z,54.91
2019-04-12T08:56:28.243Z,54.52
2019-04-12T08:58:56.823Z,54.93
2019-04-12T09:01:25.296Z,55.30
2019-04-12T09:03:53.979Z,55.14
2019-04-12T09:06:22.612Z,55.14
2019-04-12T09:09:09.359Z,55.45
2019-04-12T09:11:37.922Z,55.44
2019-04-12T09:14:06.506Z,55.35
2019-04-12T09:16:35.074Z,55.14
2019-04-12T09:19:05.345Z,55.01
2019-04-12T09:21:41.502Z,55.25
2019-04-12T09:24:11.675Z,55.42
2019-04-12T09:26:40.146Z,55.11
2019-04-12T09:29:08.683Z,54.88
2019-04-12T09:31:37.152Z,54.21
2019-04-12T09:34:16.335Z,54.59
2019-04-12T09:36:36.216Z,54.60
2019-04-12T09:39:06.843Z,54.02
2019-04-12T09:41:35.357Z,51.79
2019-04-12T09:44:03.851Z,49.88
2019-04-12T09:46:32.362Z,52.22
2019-04-12T09:49:00.872Z,50.07
2019-04-12T09:51:29.380Z,50.11
2019-04-12T09:53:57.846Z,49.64
2019-04-12T09:56:26.349Z,49.53
2019-04-12T09:58:57.298Z,50.96
2019-04-12T10:01:24.995Z,50.37
2019-04-12T10:03:53.505Z,50.73
2019-04-12T10:06:22.007Z,49.91
2019-04-12T10:08:50.541Z,50.36
2019-04-12T10:11:19.029Z,51.68
2019-04-12T10:13:47.504Z,52.13
2019-04-12T10:16:15.974Z,52.29
2019-04-12T10:18:44.471Z,52.06
2019-04-12T10:21:12.957Z,52.91
2019-04-12T10:23:41.453Z,52.25
2019-04-12T10:26:09.918Z,52.62
2019-04-12T10:28:49.454Z,51.96
2019-04-12T10:31:08.876Z,52.41
2019-04-12T10:33:37.383Z,51.64
2019-04-12T10:36:05.835Z,52.18
2019-04-12T10:38:35.955Z,51.30
2019-04-12T10:41:06.176Z,52.20
2019-04-12T10:43:35.178Z,51.36
2019-04-12T10:46:05.267Z,50.98
2019-04-12T10:48:50.229Z,50.76
2019-04-12T10:51:20.349Z,51.80
2019-04-12T10:53:53.060Z,51.63
2019-04-12T10:56:21.581Z,51.53
2019-04-12T10:59:02.142Z,50.92
2019-04-12T11:01:22.468Z,51.25
2019-04-12T11:03:50.959Z,51.43
2019-04-12T11:06:30.088Z,51.54
2019-04-12T11:08:52.432Z,51.36
2019-04-12T11:11:20.910Z,51.70
2019-04-12T11:13:49.396Z,51.68
2019-04-12T11:16:17.895Z,51.99
2019-04-12T11:18:46.507Z,51.48
2019-04-12T11:21:15.023Z,51.55
2019-04-12T11:23:43.975Z,51.70
2019-04-12T11:26:12.468Z,51.55
2019-04-12T11:28:41.971Z,52.08
2019-04-12T11:31:10.559Z,52.26
2019-04-12T11:33:39.061Z,52.54
2019-04-12T11:36:07.577Z,52.19
2019-04-12T11:38:36.041Z,51.93
2019-04-12T11:41:04.869Z,51.98
2019-04-12T11:43:33.325Z,51.58
2019-04-12T11:46:02.298Z,50.89
2019-04-12T11:48:30.780Z,50.85
2019-04-12T11:50:59.272Z,51.09
2019-04-12T11:53:27.753Z,51.09
2019-04-12T11:55:56.241Z,51.28
2019-04-12T11:58:36.617Z,51.85
2019-04-12T12:00:56.778Z,52.05
2019-04-12T12:03:32.543Z,53.07
2019-04-12T12:06:08.784Z,53.42
2019-04-12T12:08:55.075Z,53.35
2019-04-12T12:11:31.267Z,54.94
2019-04-12T12:14:04.101Z,54.63
2019-04-12T12:16:46.052Z,54.69
2019-04-12T12:19:19.624Z,54.26
2019-04-12T12:21:48.180Z,53.66
2019-04-12T12:24:16.665Z,54.29
2019-04-12T12:26:45.180Z,54.21
2019-04-12T12:29:13.706Z,54.87
2019-04-12T12:31:42.261Z,54.69
2019-04-12T12:34:10.738Z,55.09
2019-04-12T12:36:39.257Z,54.79
2019-04-12T12:39:08.674Z,54.59
2019-04-12T12:41:37.175Z,54.68
2019-04-12T12:44:05.657Z,54.31
2019-04-12T12:46:34.251Z,54.44
2019-04-12T12:49:02.764Z,54.49
2019-04-12T12:51:31.233Z,54.30
2019-04-12T12:53:59.731Z,54.65
2019-04-12T12:56:28.250Z,54.55
2019-04-12T12:58:57.755Z,54.83
2019-04-12T13:01:26.273Z,57.62
2019-04-12T13:03:54.781Z,54.86
2019-04-12T13:06:23.266Z,55.01
2019-04-12T13:08:51.739Z,55.24
2019-04-12T13:11:20.226Z,55.15
2019-04-12T13:13:48.754Z,55.52
2019-04-12T13:16:17.281Z,55.48
2019-04-12T13:18:45.930Z,55.40
2019-04-12T13:21:14.415Z,55.33
2019-04-12T13:23:42.979Z,54.81
2019-04-12T13:26:11.425Z,55.33
2019-04-12T13:28:39.953Z,54.79
2019-04-12T13:31:26.203Z,54.73
2019-04-12T13:33:59.133Z,55.07
2019-04-12T13:36:29.260Z,54.93
2019-04-12T13:38:59.417Z,55.08
2019-04-12T13:41:27.896Z,56.10
2019-04-12T13:43:56.386Z,55.14
2019-04-12T13:46:24.865Z,55.48
2019-04-12T13:48:53.388Z,54.89
2019-04-12T13:51:21.926Z,55.48
2019-04-12T13:53:50.407Z,54.66
2019-04-12T13:56:18.885Z,55.79
2019-04-12T13:58:47.476Z,56.67
2019-04-12T14:01:16.111Z,56.70
2019-04-12T14:03:44.573Z,56.66
2019-04-12T14:06:13.068Z,57.81
2019-04-12T14:08:41.563Z,56.88
2019-04-12T14:11:10.039Z,56.80
2019-04-12T14:13:38.559Z,56.30
2019-04-12T14:16:07.173Z,56.46
2019-04-12T14:18:35.834Z,56.39
2019-04-12T14:21:04.311Z,56.45
2019-04-12T14:23:32.802Z,57.00
2019-04-12T14:26:01.450Z,57.36
2019-04-12T14:28:31.113Z,57.14
2019-04-12T14:31:04.145Z,56.86
2019-04-12T14:33:40.033Z,57.32
2019-04-12T14:36:26.351Z,56.97
2019-04-12T14:38:54.831Z,57.17
2019-04-12T14:41:23.444Z,57.25
2019-04-12T14:43:59.588Z,56.27
2019-04-12T14:46:29.729Z,57.13
2019-04-12T14:48:58.205Z,57.20
2019-04-12T14:51:26.684Z,57.07
2019-04-12T14:53:55.253Z,56.93
2019-04-12T14:56:23.749Z,57.08
2019-04-12T14:58:52.259Z,57.05
2019-04-12T15:01:22.152Z,56.81
2019-04-12T15:03:50.615Z,56.45
2019-04-12T15:06:19.137Z,57.09
2019-04-12T15:08:47.596Z,57.30
2019-04-12T15:11:16.167Z,56.70
2019-04-12T15:13:44.657Z,56.58
2019-04-12T15:16:13.181Z,57.28
2019-04-12T15:18:41.673Z,56.72
2019-04-12T15:21:10.151Z,57.29
2019-04-12T15:23:38.744Z,56.45
2019-04-12T15:26:07.271Z,56.79
2019-04-12T15:28:35.738Z,56.63
2019-04-12T15:31:04.324Z,56.91
2019-04-12T15:33:32.793Z,56.63
2019-04-12T15:36:02.639Z,56.28
2019-04-12T15:38:31.093Z,55.94
2019-04-12T15:40:59.599Z,55.66
2019-04-12T15:43:28.099Z,56.32
2019-04-12T15:45:56.581Z,56.66
2019-04-12T15:48:25.072Z,56.22
2019-04-12T15:50:53.577Z,56.54
2019-04-12T15:53:22.055Z,56.64
2019-04-12T15:55:50.565Z,56.28
2019-04-12T15:58:19.048Z,56.28
2019-04-12T16:01:10.819Z,56.03
2019-04-12T16:03:32.571Z,56.90
2019-04-12T16:06:02.001Z,57.05
2019-04-12T16:08:33.538Z,57.79
2019-04-12T16:11:10.714Z,57.28
2019-04-12T16:13:44.780Z,57.89
2019-04-12T16:16:33.066Z,57.40
2019-04-12T16:19:01.604Z,56.74
2019-04-12T16:21:30.232Z,57.24
2019-04-12T16:23:58.773Z,58.01
2019-04-12T16:26:27.357Z,58.36
2019-04-12T16:28:58.924Z,57.90
2019-04-12T16:31:29.029Z,58.65
2019-04-12T16:33:59.133Z,57.55
2019-04-12T16:36:29.359Z,58.19
2019-04-12T16:38:58.107Z,58.75
2019-04-12T16:41:26.613Z,58.63
2019-04-12T16:43:55.103Z,59.03
2019-04-12T16:46:33.760Z,57.60
2019-04-12T16:48:53.806Z,58.54
2019-04-12T16:51:22.294Z,58.14
2019-04-12T16:53:55.998Z,57.45
2019-04-12T16:56:24.504Z,58.96
2019-04-12T16:58:54.412Z,58.59
2019-04-12T17:01:35.764Z,58.74
2019-04-12T17:03:53.156Z,57.67
2019-04-12T17:06:21.653Z,58.70
2019-04-12T17:08:50.155Z,59.43
2019-04-12T17:11:18.739Z,58.69
2019-04-12T17:13:47.380Z,59.16
2019-04-12T17:16:15.849Z,58.82
2019-04-12T17:18:44.325Z,59.67
2019-04-12T17:21:13.136Z,60.24
2019-04-12T17:23:41.674Z,59.85
2019-04-12T17:26:10.150Z,59.80
2019-04-12T17:28:40.156Z,58.49
2019-04-12T17:31:08.629Z,59.41
2019-04-12T17:33:37.217Z,58.71
2019-04-12T17:36:05.705Z,59.80
2019-04-12T17:38:34.218Z,58.82
2019-04-12T17:41:02.742Z,58.80
2019-04-12T17:43:31.241Z,58.77
2019-04-12T17:45:59.827Z,58.27
2019-04-12T17:48:29.972Z,58.22
2019-04-12T17:50:59.871Z,58.73
2019-04-12T17:53:42.279Z,58.98
2019-04-12T17:56:12.411Z,59.35
2019-04-12T17:58:40.940Z,59.19
2019-04-12T18:01:29.460Z,59.07
2019-04-12T18:03:59.611Z,59.53
2019-04-12T18:06:28.174Z,60.47
2019-04-12T18:08:56.674Z,60.19
2019-04-12T18:11:32.830Z,58.98
2019-04-12T18:14:01.348Z,60.18
2019-04-12T18:16:29.832Z,59.02
2019-04-12T18:18:58.342Z,59.69
2019-04-12T18:21:26.852Z,59.98
2019-04-12T18:23:55.387Z,60.58
2019-04-12T18:26:23.870Z,59.72
2019-04-12T18:28:52.400Z,60.53
2019-04-12T18:31:20.982Z,60.99
2019-04-12T18:33:49.436Z,59.18
2019-04-12T18:36:17.938Z,59.65
2019-04-12T18:38:46.439Z,60.13
2019-04-12T18:41:14.978Z,60.43
2019-04-12T18:43:43.454Z,59.83
2019-04-12T18:46:11.984Z,60.29
2019-04-12T18:48:40.474Z,60.75
2019-04-12T18:51:09.036Z,60.22
2019-04-12T18:53:37.451Z,60.72
2019-04-12T18:56:05.968Z,60.19
2019-04-12T18:58:34.448Z,60.42
2019-04-12T19:01:03.009Z,60.38
2019-04-12T19:03:31.466Z,59.73
2019-04-12T19:06:00.030Z,59.85
2019-04-12T19:08:28.512Z,59.28
2019-04-12T19:10:57.028Z,59.84
2019-04-12T19:13:25.554Z,59.18
2019-04-12T19:15:54.192Z,60.52
2019-04-12T19:18:22.658Z,59.58
2019-04-12T19:20:51.152Z,59.27
2019-04-12T19:23:19.621Z,59.67
2019-04-12T19:25:48.306Z,59.28
2019-04-12T19:28:16.787Z,59.61
2019-04-12T19:30:46.955Z,59.32
2019-04-12T19:33:17.072Z,60.11
2019-04-12T19:35:50.282Z,59.57
2019-04-12T19:38:20.419Z,60.38
2019-04-12T19:40:50.013Z,60.27
2019-04-12T19:43:18.474Z,60.27
2019-04-12T19:45:46.951Z,60.64
2019-04-12T19:48:15.474Z,60.09
2019-04-12T19:50:43.961Z,59.92
2019-04-12T19:53:12.478Z,60.23
2019-04-12T19:55:41.045Z,60.31
2019-04-12T19:58:09.559Z,59.51
2019-04-12T20:00:38.119Z,60.05
2019-04-12T20:03:06.623Z,59.60
2019-04-12T20:05:35.105Z,60.42
2019-04-12T20:08:03.611Z,60.37
2019-04-12T20:10:32.166Z,59.69
2019-04-12T20:13:00.684Z,59.86
2019-04-12T20:15:29.162Z,60.57
2019-04-12T20:17:57.669Z,59.37
2019-04-12T20:20:26.168Z,59.99
2019-04-12T20:22:54.671Z,60.28
2019-04-12T20:25:23.173Z,59.68
2019-04-12T20:27:51.664Z,59.44
2019-04-12T20:30:20.236Z,60.54
2019-04-12T20:32:48.729Z,59.60
2019-04-12T20:35:17.275Z,59.50
2019-04-12T20:37:45.782Z,59.94
2019-04-12T20:40:14.372Z,59.30
2019-04-12T20:42:42.959Z,60.12
2019-04-12T20:45:11.536Z,59.47
2019-04-12T20:47:40.131Z,59.46
2019-04-12T20:50:08.948Z,60.20
2019-04-12T20:52:37.472Z,59.94
2019-04-12T20:55:06.870Z,59.74
2019-04-12T20:57:35.383Z,59.62
2019-04-12T21:00:05.912Z,59.52
2019-04-12T21:02:40.364Z,60.14
2019-04-12T21:05:05.629Z,59.75
2019-04-12T21:07:34.243Z,59.78
2019-04-12T21:10:02.742Z,59.92
2019-04-12T21:12:31.280Z,59.30
2019-04-12T21:14:59.809Z,60.77
2019-04-12T21:17:28.294Z,59.30
2019-04-12T21:19:56.800Z,59.55
2019-04-12T21:22:25.278Z,60.20
2019-04-12T21:24:53.835Z,60.07
2019-04-12T21:27:22.321Z,59.42
2019-04-12T21:29:50.848Z,59.61
2019-04-12T21:32:19.377Z,60.66
2019-04-12T21:34:47.929Z,59.64
2019-04-12T21:37:16.695Z,59.80
2019-04-12T21:39:45.221Z,60.91
2019-04-12T21:42:13.783Z,60.52
2019-04-12T21:44:42.310Z,60.08
2019-04-12T21:47:10.799Z,59.98
2019-04-12T21:49:43.470Z,60.64
2019-04-12T21:52:11.952Z,61.41
2019-04-12T21:54:40.509Z,60.31
2019-04-12T21:57:08.983Z,60.70
2019-04-12T21:59:37.477Z,61.86
2019-04-12T22:02:07.906Z,61.02
2019-04-12T22:04:36.902Z,61.30
2019-04-12T22:07:05.382Z,61.16
2019-04-12T22:09:33.914Z,61.61
2019-04-12T22:12:02.527Z,61.70
2019-04-12T22:14:31.023Z,61.83
2019-04-12T22:16:59.494Z,62.37
2019-04-12T22:19:27.982Z,63.10
2019-04-12T22:21:56.480Z,62.18
2019-04-12T22:24:25.002Z,63.52
2019-04-12T22:26:53.495Z,61.89
2019-04-12T22:29:22.002Z,62.31
2019-04-12T22:31:57.954Z,62.67
2019-04-12T22:34:26.465Z,62.31
2019-04-12T22:36:54.943Z,62.47
2019-04-12T22:39:23.479Z,63.34
2019-04-12T22:41:51.980Z,62.66
2019-04-12T22:44:20.486Z,64.23
2019-04-12T22:46:48.971Z,63.10
2019-04-12T22:49:17.515Z,64.15
2019-04-12T22:51:46.078Z,63.70
2019-04-12T22:54:14.560Z,64.83
2019-04-12T22:56:43.054Z,63.68
2019-04-12T22:59:11.555Z,62.47
2019-04-12T23:01:40.064Z,64.22
2019-04-12T23:04:08.543Z,63.59
2019-04-12T23:06:37.039Z,63.25
2019-04-12T23:09:06.945Z,62.88
2019-04-12T23:11:35.471Z,63.73
2019-04-12T23:14:03.984Z,62.50
2019-04-12T23:16:32.476Z,62.40
2019-04-12T23:19:00.958Z,63.10
2019-04-12T23:21:29.497Z,62.65
2019-04-12T23:23:57.980Z,63.77
2019-04-12T23:26:26.502Z,62.75
2019-04-12T23:28:55.044Z,64.64
2019-04-12T23:31:25.189Z,64.67
2019-04-12T23:33:55.309Z,64.05
2019-04-12T23:36:25.442Z,63.03
2019-04-12T23:38:53.926Z,64.15
2019-04-12T23:41:22.447Z,62.86
2019-04-12T23:43:50.928Z,64.19
2019-04-12T23:46:19.429Z,64.08
2019-04-12T23:48:47.911Z,63.57
2019-04-12T23:51:16.439Z,64.02
2019-04-12T23:53:44.931Z,65.45
2019-04-12T23:56:13.445Z,65.66
2019-04-12T23:58:41.943Z,65.52
